sensor_id;sensor_type;location;lat;lon;timestamp;pressure;altitude;pressure_sealevel;temperature;humidity
42859;BME280;28505;56.970;40.998;2023-09-18T00:02:57;100401.47;;;7.81;100.00
42859;BME280;28505;56.970;40.998;2023-09-18T00:08:20;100392.66;;;7.85;100.00
42859;BME280;28505;56.970;40.998;2023-09-18T00:13:42;100387.00;;;7.77;100.00
42859;BME280;28505;56.970;40.998;2023-09-18T00:19:04;100392.69;;;7.95;100.00
42859;BME280;28505;56.970;40.998;2023-09-18T00:24:29;100390.78;;;7.91;100.00
42859;BME280;28505;56.970;40.998;2023-09-18T00:29:51;100385.69;;;7.94;100.00
42859;BME280;28505;56.970;40.998;2023-09-18T00:35:13;100366.38;;;7.92;100.00
42859;BME280;28505;56.970;40.998;2023-09-18T00:40:35;100378.72;;;7.93;100.00
42859;BME280;28505;56.970;40.998;2023-09-18T00:45:58;100379.50;;;7.94;100.00
42859;BME280;28505;56.970;40.998;2023-09-18T00:51:20;100377.66;;;8.00;100.00
42859;BME280;28505;56.970;40.998;2023-09-18T00:56:42;100358.84;;;8.00;100.00
42859;BME280;28505;56.970;40.998;2023-09-18T01:02:05;100347.03;;;7.90;100.00
42859;BME280;28505;56.970;40.998;2023-09-18T01:07:31;100339.25;;;7.89;100.00
42859;BME280;28505;56.970;40.998;2023-09-18T01:13:08;100327.19;;;7.91;100.00
42859;BME280;28505;56.970;40.998;2023-09-18T01:18:34;100330.09;;;7.80;100.00
42859;BME280;28505;56.970;40.998;2023-09-18T01:23:57;100321.00;;;7.96;100.00
42859;BME280;28505;56.970;40.998;2023-09-18T01:29:18;100320.47;;;7.99;100.00
42859;BME280;28505;56.970;40.998;2023-09-18T01:34:48;100305.72;;;8.02;100.00
42859;BME280;28505;56.970;40.998;2023-09-18T01:40:11;100311.06;;;8.07;100.00
42859;BME280;28505;56.970;40.998;2023-09-18T01:45:33;100301.97;;;8.08;100.00
42859;BME280;28505;56.970;40.998;2023-09-18T01:50:55;100294.16;;;8.01;100.00
42859;BME280;28505;56.970;40.998;2023-09-18T01:56:18;100286.38;;;8.00;100.00
42859;BME280;28505;56.970;40.998;2023-09-18T02:01:40;100295.22;;;7.95;100.00
42859;BME280;28505;56.970;40.998;2023-09-18T02:07:05;100294.97;;;8.07;100.00
42859;BME280;28505;56.970;40.998;2023-09-18T02:12:29;100293.06;;;7.82;100.00
42859;BME280;28505;56.970;40.998;2023-09-18T02:17:55;100303.50;;;7.78;100.00
42859;BME280;28505;56.970;40.998;2023-09-18T02:23:18;100303.81;;;8.07;100.00
42859;BME280;28505;56.970;40.998;2023-09-18T02:29:04;100291.72;;;8.00;100.00
42859;BME280;28505;56.970;40.998;2023-09-18T02:34:26;100297.91;;;7.90;100.00
42859;BME280;28505;56.970;40.998;2023-09-18T02:39:48;100290.13;;;7.93;100.00
42859;BME280;28505;56.970;40.998;2023-09-18T02:45:10;100285.00;;;7.97;100.00
42859;BME280;28505;56.970;40.998;2023-09-18T02:50:32;100284.72;;;7.78;100.00
42859;BME280;28505;56.970;40.998;2023-09-18T02:55:56;100293.34;;;7.90;100.00
42859;BME280;28505;56.970;40.998;2023-09-18T03:01:18;100287.16;;;7.90;100.00
42859;BME280;28505;56.970;40.998;2023-09-18T03:06:40;100285.28;;;7.95;100.00
42859;BME280;28505;56.970;40.998;2023-09-18T03:12:03;100285.56;;;7.99;100.00
42859;BME280;28505;56.970;40.998;2023-09-18T03:17:26;100287.69;;;7.97;100.00
42859;BME280;28505;56.970;40.998;2023-09-18T03:22:50;100285.81;;;7.97;100.00
42859;BME280;28505;56.970;40.998;2023-09-18T03:28:13;100287.44;;;8.04;100.00
42859;BME280;28505;56.970;40.998;2023-09-18T03:33:35;100287.16;;;8.10;100.00
42859;BME280;28505;56.970;40.998;2023-09-18T03:38:57;100282.63;;;8.21;100.00
42859;BME280;28505;56.970;40.998;2023-09-18T03:44:20;100285.03;;;8.23;100.00
42859;BME280;28505;56.970;40.998;2023-09-18T03:49:43;100281.53;;;8.37;100.00
42859;BME280;28505;56.970;40.998;2023-09-18T03:55:05;100286.41;;;8.40;100.00
42859;BME280;28505;56.970;40.998;2023-09-18T04:00:31;100293.34;;;8.52;100.00
42859;BME280;28505;56.970;40.998;2023-09-18T04:05:53;100289.56;;;8.68;100.00
42859;BME280;28505;56.970;40.998;2023-09-18T04:11:15;100287.38;;;8.75;100.00
42859;BME280;28505;56.970;40.998;2023-09-18T04:16:37;100290.59;;;8.87;100.00
42859;BME280;28505;56.970;40.998;2023-09-18T04:22:03;100291.66;;;8.91;100.00
42859;BME280;28505;56.970;40.998;2023-09-18T04:27:25;100307.72;;;9.12;100.00
42859;BME280;28505;56.970;40.998;2023-09-18T04:32:47;100300.69;;;9.21;100.00
42859;BME280;28505;56.970;40.998;2023-09-18T04:38:10;100304.47;;;9.20;100.00
42859;BME280;28505;56.970;40.998;2023-09-18T04:43:38;100309.03;;;9.20;100.00
42859;BME280;28505;56.970;40.998;2023-09-18T04:49:00;100305.50;;;9.29;100.00
42859;BME280;28505;56.970;40.998;2023-09-18T04:54:22;100309.75;;;9.41;100.00
42859;BME280;28505;56.970;40.998;2023-09-18T04:59:45;100308.34;;;9.53;100.00
42859;BME280;28505;56.970;40.998;2023-09-18T05:05:11;100309.63;;;9.61;100.00
42859;BME280;28505;56.970;40.998;2023-09-18T05:10:34;100306.13;;;9.66;100.00
42859;BME280;28505;56.970;40.998;2023-09-18T05:15:56;100293.75;;;9.65;100.00
42859;BME280;28505;56.970;40.998;2023-09-18T05:21:21;100308.03;;;9.60;100.00
42859;BME280;28505;56.970;40.998;2023-09-18T05:26:46;100312.06;;;9.63;100.00
42859;BME280;28505;56.970;40.998;2023-09-18T05:32:08;100316.03;;;9.75;100.00
42859;BME280;28505;56.970;40.998;2023-09-18T05:37:30;100330.00;;;9.77;100.00
42859;BME280;28505;56.970;40.998;2023-09-18T05:42:53;100314.69;;;9.78;100.00
42859;BME280;28505;56.970;40.998;2023-09-18T05:48:16;100325.16;;;9.79;100.00
42859;BME280;28505;56.970;40.998;2023-09-18T05:53:38;100322.69;;;9.88;100.00
42859;BME280;28505;56.970;40.998;2023-09-18T05:59:01;100323.44;;;9.94;100.00
42859;BME280;28505;56.970;40.998;2023-09-18T06:04:23;100327.06;;;10.13;100.00
42859;BME280;28505;56.970;40.998;2023-09-18T06:09:45;100324.78;;;10.36;100.00
42859;BME280;28505;56.970;40.998;2023-09-18T06:15:08;100328.94;;;10.52;100.00
42859;BME280;28505;56.970;40.998;2023-09-18T06:20:28;100334.81;;;10.59;100.00
42859;BME280;28505;56.970;40.998;2023-09-18T06:25:51;100330.63;;;10.72;100.00
42859;BME280;28505;56.970;40.998;2023-09-18T06:31:17;100332.31;;;11.40;100.00
42859;BME280;28505;56.970;40.998;2023-09-18T06:36:40;100336.47;;;11.08;100.00
42859;BME280;28505;56.970;40.998;2023-09-18T06:42:02;100331.63;;;11.05;100.00
42859;BME280;28505;56.970;40.998;2023-09-18T06:47:24;100331.78;;;11.19;100.00
42859;BME280;28505;56.970;40.998;2023-09-18T06:52:47;100337.13;;;11.43;100.00
42859;BME280;28505;56.970;40.998;2023-09-18T06:58:11;100342.72;;;11.28;100.00
42859;BME280;28505;56.970;40.998;2023-09-18T07:03:33;100342.00;;;11.84;100.00
42859;BME280;28505;56.970;40.998;2023-09-18T07:08:57;100339.84;;;11.86;100.00
42859;BME280;28505;56.970;40.998;2023-09-18T07:14:19;100349.09;;;12.17;100.00
42859;BME280;28505;56.970;40.998;2023-09-18T07:19:41;100349.38;;;12.16;100.00
42859;BME280;28505;56.970;40.998;2023-09-18T07:25:03;100352.44;;;12.28;100.00
42859;BME280;28505;56.970;40.998;2023-09-18T07:30:26;100360.72;;;12.18;100.00
42859;BME280;28505;56.970;40.998;2023-09-18T07:35:49;100362.50;;;12.41;100.00
42859;BME280;28505;56.970;40.998;2023-09-18T07:41:13;100361.69;;;12.41;100.00
42859;BME280;28505;56.970;40.998;2023-09-18T07:46:37;100364.81;;;12.81;100.00
42859;BME280;28505;56.970;40.998;2023-09-18T07:51:59;100357.13;;;12.55;100.00
42859;BME280;28505;56.970;40.998;2023-09-18T07:57:22;100369.47;;;13.77;100.00
42859;BME280;28505;56.970;40.998;2023-09-18T08:02:44;100363.03;;;13.73;100.00
42859;BME280;28505;56.970;40.998;2023-09-18T08:08:10;100360.75;;;13.52;100.00
42859;BME280;28505;56.970;40.998;2023-09-18T08:13:32;100368.47;;;14.32;100.00
42859;BME280;28505;56.970;40.998;2023-09-18T08:18:54;100366.69;;;15.03;100.00
42859;BME280;28505;56.970;40.998;2023-09-18T08:24:18;100368.06;;;14.61;100.00
42859;BME280;28505;56.970;40.998;2023-09-18T08:29:40;100366.38;;;13.92;100.00
42859;BME280;28505;56.970;40.998;2023-09-18T08:35:02;100362.09;;;14.81;100.00
42859;BME280;28505;56.970;40.998;2023-09-18T08:40:25;100360.38;;;14.85;100.00
42859;BME280;28505;56.970;40.998;2023-09-18T08:45:52;100361.53;;;14.62;100.00
42859;BME280;28505;56.970;40.998;2023-09-18T08:51:16;100357.09;;;15.45;91.08
42859;BME280;28505;56.970;40.998;2023-09-18T08:56:40;100358.19;;;14.96;95.47
42859;BME280;28505;56.970;40.998;2023-09-18T09:02:02;100368.09;;;15.01;87.66
42859;BME280;28505;56.970;40.998;2023-09-18T09:07:25;100365.25;;;15.06;91.51
42859;BME280;28505;56.970;40.998;2023-09-18T09:13:00;100356.53;;;15.26;86.25
42859;BME280;28505;56.970;40.998;2023-09-18T09:18:27;100346.63;;;15.21;80.44
42859;BME280;28505;56.970;40.998;2023-09-18T09:23:53;100356.00;;;15.07;78.02
42859;BME280;28505;56.970;40.998;2023-09-18T09:29:20;100341.91;;;15.44;73.64
42859;BME280;28505;56.970;40.998;2023-09-18T09:34:43;100338.53;;;15.39;74.34
42859;BME280;28505;56.970;40.998;2023-09-18T09:40:06;100336.88;;;15.86;69.72
42859;BME280;28505;56.970;40.998;2023-09-18T09:45:32;100341.09;;;15.35;71.55
42859;BME280;28505;56.970;40.998;2023-09-18T09:50:59;100339.78;;;15.33;70.08
42859;BME280;28505;56.970;40.998;2023-09-18T09:56:47;100351.69;;;15.63;70.49
42859;BME280;28505;56.970;40.998;2023-09-18T10:02:12;100361.66;;;15.76;68.87
42859;BME280;28505;56.970;40.998;2023-09-18T10:07:41;100371.75;;;15.27;68.91
42859;BME280;28505;56.970;40.998;2023-09-18T10:13:09;100360.16;;;15.61;70.58
42859;BME280;28505;56.970;40.998;2023-09-18T10:24:04;100354.94;;;15.82;67.13
42859;BME280;28505;56.970;40.998;2023-09-18T10:29:36;100362.22;;;15.56;66.41
42859;BME280;28505;56.970;40.998;2023-09-18T10:35:02;100363.25;;;16.12;65.21
42859;BME280;28505;56.970;40.998;2023-09-18T10:40:25;100366.66;;;16.09;66.39
42859;BME280;28505;56.970;40.998;2023-09-18T10:45:49;100364.53;;;15.71;65.17
42859;BME280;28505;56.970;40.998;2023-09-18T10:51:13;100379.28;;;16.22;62.24
42859;BME280;28505;56.970;40.998;2023-09-18T10:56:35;100376.69;;;15.82;62.01
42859;BME280;28505;56.970;40.998;2023-09-18T11:02:04;100381.19;;;16.13;62.65
42859;BME280;28505;56.970;40.998;2023-09-18T11:07:29;100389.03;;;15.97;63.09
42859;BME280;28505;56.970;40.998;2023-09-18T11:12:51;100391.09;;;15.91;61.34
42859;BME280;28505;56.970;40.998;2023-09-18T11:18:19;100370.78;;;15.89;62.57
42859;BME280;28505;56.970;40.998;2023-09-18T11:23:41;100382.59;;;15.76;62.13
42859;BME280;28505;56.970;40.998;2023-09-18T11:29:11;100389.66;;;16.11;62.39
42859;BME280;28505;56.970;40.998;2023-09-18T11:34:34;100380.72;;;16.11;61.71
42859;BME280;28505;56.970;40.998;2023-09-18T11:40:02;100386.97;;;16.20;61.66
42859;BME280;28505;56.970;40.998;2023-09-18T11:45:26;100385.22;;;16.15;62.71
42859;BME280;28505;56.970;40.998;2023-09-18T11:50:49;100385.31;;;16.54;61.68
42859;BME280;28505;56.970;40.998;2023-09-18T11:56:12;100385.19;;;16.33;62.28
42859;BME280;28505;56.970;40.998;2023-09-18T12:01:39;100394.31;;;16.46;61.96
42859;BME280;28505;56.970;40.998;2023-09-18T12:07:10;100406.00;;;16.03;62.74
42859;BME280;28505;56.970;40.998;2023-09-18T12:12:35;100392.72;;;16.27;61.92
42859;BME280;28505;56.970;40.998;2023-09-18T12:17:56;100406.13;;;16.41;62.91
42859;BME280;28505;56.970;40.998;2023-09-18T12:23:21;100421.50;;;16.11;64.14
42859;BME280;28505;56.970;40.998;2023-09-18T12:28:45;100418.31;;;16.26;62.72
42859;BME280;28505;56.970;40.998;2023-09-18T12:34:18;100422.13;;;16.08;63.51
42859;BME280;28505;56.970;40.998;2023-09-18T12:39:43;100424.22;;;15.45;65.14
42859;BME280;28505;56.970;40.998;2023-09-18T12:45:08;100416.72;;;15.11;67.57
42859;BME280;28505;56.970;40.998;2023-09-18T12:50:30;100428.91;;;15.22;68.11
42859;BME280;28505;56.970;40.998;2023-09-18T12:56:05;100435.28;;;15.66;66.51
42859;BME280;28505;56.970;40.998;2023-09-18T13:01:27;100439.13;;;15.65;64.41
42859;BME280;28505;56.970;40.998;2023-09-18T13:07:03;100446.56;;;15.82;64.10
42859;BME280;28505;56.970;40.998;2023-09-18T13:12:42;100442.84;;;15.69;64.55
42859;BME280;28505;56.970;40.998;2023-09-18T13:18:10;100457.31;;;15.56;64.82
42859;BME280;28505;56.970;40.998;2023-09-18T13:23:33;100456.69;;;15.59;64.69
42859;BME280;28505;56.970;40.998;2023-09-18T13:28:56;100461.81;;;15.20;68.21
42859;BME280;28505;56.970;40.998;2023-09-18T13:34:19;100469.59;;;15.44;67.19
42859;BME280;28505;56.970;40.998;2023-09-18T13:39:41;100471.81;;;15.42;66.93
42859;BME280;28505;56.970;40.998;2023-09-18T13:45:05;100472.22;;;14.96;71.53
42859;BME280;28505;56.970;40.998;2023-09-18T13:50:31;100478.97;;;15.07;69.10
42859;BME280;28505;56.970;40.998;2023-09-18T13:55:53;100476.78;;;14.87;68.17
42859;BME280;28505;56.970;40.998;2023-09-18T14:01:17;100485.94;;;14.68;70.88
42859;BME280;28505;56.970;40.998;2023-09-18T14:06:40;100490.19;;;14.47;72.14
42859;BME280;28505;56.970;40.998;2023-09-18T14:12:04;100495.03;;;14.36;70.01
42859;BME280;28505;56.970;40.998;2023-09-18T14:17:28;100490.16;;;14.11;73.56
42859;BME280;28505;56.970;40.998;2023-09-18T14:22:52;100507.94;;;13.89;75.52
42859;BME280;28505;56.970;40.998;2023-09-18T14:28:14;100496.91;;;13.72;73.03
42859;BME280;28505;56.970;40.998;2023-09-18T14:33:36;100503.91;;;13.59;74.41
42859;BME280;28505;56.970;40.998;2023-09-18T14:39:00;100501.66;;;13.33;75.02
42859;BME280;28505;56.970;40.998;2023-09-18T14:44:23;100503.56;;;13.00;78.25
42859;BME280;28505;56.970;40.998;2023-09-18T14:49:44;100510.38;;;12.98;80.95
42859;BME280;28505;56.970;40.998;2023-09-18T14:55:08;100507.78;;;12.74;84.52
42859;BME280;28505;56.970;40.998;2023-09-18T15:00:34;100515.06;;;12.35;85.52
42859;BME280;28505;56.970;40.998;2023-09-18T15:05:56;100532.19;;;12.50;92.16
42859;BME280;28505;56.970;40.998;2023-09-18T15:11:18;100533.88;;;12.27;90.79
42859;BME280;28505;56.970;40.998;2023-09-18T15:16:41;100532.25;;;11.78;96.43
42859;BME280;28505;56.970;40.998;2023-09-18T15:22:03;100536.13;;;11.42;95.44
42859;BME280;28505;56.970;40.998;2023-09-18T15:27:25;100547.03;;;11.27;100.00
42859;BME280;28505;56.970;40.998;2023-09-18T15:32:52;100541.53;;;11.08;100.00
42859;BME280;28505;56.970;40.998;2023-09-18T15:38:15;100543.03;;;10.90;100.00
42859;BME280;28505;56.970;40.998;2023-09-18T15:43:37;100538.22;;;10.38;100.00
42859;BME280;28505;56.970;40.998;2023-09-18T15:48:59;100542.94;;;10.56;100.00
42859;BME280;28505;56.970;40.998;2023-09-18T15:54:21;100552.56;;;10.18;100.00
42859;BME280;28505;56.970;40.998;2023-09-18T15:59:44;100550.41;;;10.30;100.00
42859;BME280;28505;56.970;40.998;2023-09-18T16:05:07;100547.38;;;9.21;100.00
42859;BME280;28505;56.970;40.998;2023-09-18T16:10:32;100559.47;;;9.23;100.00
42859;BME280;28505;56.970;40.998;2023-09-18T16:15:58;100562.97;;;8.93;100.00
42859;BME280;28505;56.970;40.998;2023-09-18T16:21:23;100561.00;;;8.48;100.00
42859;BME280;28505;56.970;40.998;2023-09-18T16:26:45;100563.88;;;8.31;100.00
42859;BME280;28505;56.970;40.998;2023-09-18T16:32:08;100570.41;;;8.50;100.00
42859;BME280;28505;56.970;40.998;2023-09-18T16:37:31;100559.34;;;8.41;100.00
42859;BME280;28505;56.970;40.998;2023-09-18T16:42:54;100561.78;;;8.48;100.00
42859;BME280;28505;56.970;40.998;2023-09-18T16:48:16;100567.09;;;7.80;100.00
42859;BME280;28505;56.970;40.998;2023-09-18T16:53:39;100566.72;;;8.14;100.00
42859;BME280;28505;56.970;40.998;2023-09-18T16:59:02;100562.28;;;8.40;100.00
42859;BME280;28505;56.970;40.998;2023-09-18T17:04:23;100576.00;;;7.48;100.00
42859;BME280;28505;56.970;40.998;2023-09-18T17:09:45;100578.50;;;7.23;100.00
42859;BME280;28505;56.970;40.998;2023-09-18T17:15:09;100588.09;;;7.19;100.00
42859;BME280;28505;56.970;40.998;2023-09-18T17:20:36;100587.38;;;7.61;100.00
42859;BME280;28505;56.970;40.998;2023-09-18T17:25:59;100586.56;;;7.60;100.00
42859;BME280;28505;56.970;40.998;2023-09-18T17:31:24;100591.78;;;7.40;100.00
42859;BME280;28505;56.970;40.998;2023-09-18T17:36:47;100592.75;;;6.47;100.00
42859;BME280;28505;56.970;40.998;2023-09-18T17:42:12;100601.94;;;7.38;100.00
42859;BME280;28505;56.970;40.998;2023-09-18T17:47:37;100593.09;;;7.37;100.00
42859;BME280;28505;56.970;40.998;2023-09-18T17:53:01;100603.06;;;7.10;100.00
42859;BME280;28505;56.970;40.998;2023-09-18T17:58:24;100595.94;;;6.93;100.00
42859;BME280;28505;56.970;40.998;2023-09-18T18:03:50;100589.09;;;7.08;100.00
42859;BME280;28505;56.970;40.998;2023-09-18T18:09:13;100599.63;;;6.38;100.00
42859;BME280;28505;56.970;40.998;2023-09-18T18:14:35;100588.53;;;6.51;100.00
42859;BME280;28505;56.970;40.998;2023-09-18T18:19:58;100598.09;;;6.69;100.00
42859;BME280;28505;56.970;40.998;2023-09-18T18:25:20;100597.38;;;6.52;100.00
42859;BME280;28505;56.970;40.998;2023-09-18T18:38:27;100611.38;;;5.98;100.00
42859;BME280;28505;56.970;40.998;2023-09-18T18:43:49;100610.09;;;6.89;100.00
42859;BME280;28505;56.970;40.998;2023-09-18T18:49:11;100610.75;;;6.52;100.00
42859;BME280;28505;56.970;40.998;2023-09-18T18:54:33;100611.06;;;6.12;100.00
42859;BME280;28505;56.970;40.998;2023-09-18T18:59:55;100608.81;;;5.70;100.00
42859;BME280;28505;56.970;40.998;2023-09-18T19:05:17;100608.50;;;6.66;100.00
42859;BME280;28505;56.970;40.998;2023-09-18T19:10:39;100612.28;;;5.87;100.00
42859;BME280;28505;56.970;40.998;2023-09-18T19:16:02;100609.13;;;4.77;100.00
42859;BME280;28505;56.970;40.998;2023-09-18T19:21:24;100607.28;;;5.74;100.00
42859;BME280;28505;56.970;40.998;2023-09-18T19:26:47;100614.50;;;5.56;100.00
42859;BME280;28505;56.970;40.998;2023-09-18T19:32:09;100606.06;;;5.64;100.00
42859;BME280;28505;56.970;40.998;2023-09-18T19:37:33;100622.41;;;5.01;100.00
42859;BME280;28505;56.970;40.998;2023-09-18T19:42:55;100618.25;;;4.12;100.00
42859;BME280;28505;56.970;40.998;2023-09-18T19:55:25;100618.97;;;5.34;100.00
42859;BME280;28505;56.970;40.998;2023-09-18T20:00:52;100626.06;;;5.11;100.00
42859;BME280;28505;56.970;40.998;2023-09-18T20:06:15;100618.06;;;5.45;100.00
42859;BME280;28505;56.970;40.998;2023-09-18T20:11:37;100624.19;;;3.14;100.00
42859;BME280;28505;56.970;40.998;2023-09-18T20:17:02;100627.69;;;4.84;100.00
42859;BME280;28505;56.970;40.998;2023-09-18T20:22:24;100635.72;;;4.43;100.00
42859;BME280;28505;56.970;40.998;2023-09-18T20:28:18;100627.22;;;4.58;100.00
42859;BME280;28505;56.970;40.998;2023-09-18T20:33:40;100641.25;;;4.54;100.00
42859;BME280;28505;56.970;40.998;2023-09-18T20:39:04;100636.59;;;4.89;100.00
42859;BME280;28505;56.970;40.998;2023-09-18T20:44:26;100627.31;;;3.88;100.00
42859;BME280;28505;56.970;40.998;2023-09-18T20:49:52;100636.13;;;4.92;100.00
42859;BME280;28505;56.970;40.998;2023-09-18T20:55:14;100642.44;;;4.46;100.00
42859;BME280;28505;56.970;40.998;2023-09-18T21:00:37;100637.88;;;4.06;100.00
42859;BME280;28505;56.970;40.998;2023-09-18T21:06:00;100637.47;;;5.07;100.00
42859;BME280;28505;56.970;40.998;2023-09-18T21:11:22;100649.94;;;2.90;100.00
42859;BME280;28505;56.970;40.998;2023-09-18T21:16:44;100644.13;;;4.64;100.00
42859;BME280;28505;56.970;40.998;2023-09-18T21:22:07;100637.44;;;4.50;100.00
42859;BME280;28505;56.970;40.998;2023-09-18T21:27:29;100636.81;;;2.58;100.00
42859;BME280;28505;56.970;40.998;2023-09-18T21:32:51;100648.16;;;4.14;100.00
42859;BME280;28505;56.970;40.998;2023-09-18T21:38:14;100647.97;;;4.56;100.00
42859;BME280;28505;56.970;40.998;2023-09-18T21:43:37;100659.66;;;4.03;100.00
42859;BME280;28505;56.970;40.998;2023-09-18T21:48:59;100655.25;;;3.73;100.00
42859;BME280;28505;56.970;40.998;2023-09-18T21:54:21;100649.69;;;4.22;100.00
42859;BME280;28505;56.970;40.998;2023-09-18T21:59:43;100668.59;;;4.32;100.00
42859;BME280;28505;56.970;40.998;2023-09-18T22:05:05;100675.81;;;3.31;100.00
42859;BME280;28505;56.970;40.998;2023-09-18T22:10:27;100674.63;;;4.04;100.00
42859;BME280;28505;56.970;40.998;2023-09-18T22:15:49;100675.06;;;2.94;100.00
42859;BME280;28505;56.970;40.998;2023-09-18T22:21:11;100679.44;;;4.54;100.00
42859;BME280;28505;56.970;40.998;2023-09-18T22:26:33;100676.59;;;4.32;100.00
42859;BME280;28505;56.970;40.998;2023-09-18T22:31:59;100678.94;;;3.93;100.00
42859;BME280;28505;56.970;40.998;2023-09-18T22:37:21;100681.50;;;3.35;100.00
42859;BME280;28505;56.970;40.998;2023-09-18T22:54:46;100685.31;;;3.39;100.00
42859;BME280;28505;56.970;40.998;2023-09-18T23:00:10;100681.81;;;2.96;100.00
42859;BME280;28505;56.970;40.998;2023-09-18T23:05:33;100675.84;;;2.83;100.00
42859;BME280;28505;56.970;40.998;2023-09-18T23:10:58;100689.53;;;3.58;100.00
42859;BME280;28505;56.970;40.998;2023-09-18T23:16:20;100697.47;;;1.94;100.00
42859;BME280;28505;56.970;40.998;2023-09-18T23:21:45;100678.63;;;2.39;100.00
42859;BME280;28505;56.970;40.998;2023-09-18T23:27:14;100696.13;;;3.56;100.00
42859;BME280;28505;56.970;40.998;2023-09-18T23:32:36;100705.75;;;3.45;100.00
42859;BME280;28505;56.970;40.998;2023-09-18T23:38:06;100705.31;;;3.18;100.00
42859;BME280;28505;56.970;40.998;2023-09-18T23:43:29;100708.25;;;2.61;100.00
42859;BME280;28505;56.970;40.998;2023-09-18T23:48:55;100705.59;;;3.10;100.00
42859;BME280;28505;56.970;40.998;2023-09-18T23:54:17;100705.56;;;2.98;100.00
42859;BME280;28505;56.970;40.998;2023-09-18T23:59:39;100712.75;;;2.79;100.00
